AirNav   Air Wisconsin Up To $57,000 Bonus
 
 1685 users online  

TE67 Cibolo Sea-Willo Airpark
New Berlin, Texas, USA

GOING TO NEW BERLIN?


FAA INFORMATION EFFECTIVE 11 AUGUST 2022

Location

FAA Identifier: TE67
Lat/Long: 29-25-44.8400N 098-07-54.0200W
29-25.747333N 098-07.900333W
29.4291222,-98.1316722
(estimated)
Elevation: 517 ft. / 158 m (estimated)
Variation: 07E (1995)
From city: 4 miles SW of NEW BERLIN, TX
Time zone: UTC -5 (UTC -6 during Standard Time)
Zip code: 78121

Airport Operations

Airport use: Private use. Permission required prior to landing
Activation date: 06/2000
Control tower: no
ARTCC: HOUSTON CENTER
FSS: SAN ANGELO FLIGHT SERVICE STATION
Attendance: UNATNDD
Wind indicator: yes
Segmented circle: no

Airport Communications

WX ASOS at BAZ (17 nm N): 119.325 (830-629-7979)
WX ASOS at SSF (19 nm W): PHONE 210-927-9391
WX ASOS at SAT (19 nm W): PHONE 210-805-5583

Nearby radio navigation aids

VOR radial/distance  VOR name  Freq  Var
RNDr119/9.7RANDOLPH VORTAC112.3005E
SSFr049/(19.3)STINSON VOR108.4009E
SATr119/21.5SAN ANTONIO VORTAC116.8008E

Airport Services

Runway Information

Runway 16/34

Dimensions: 2500 x 40 ft. / 762 x 12 m
Surface: asphalt
RUNWAY 16  RUNWAY 34
Traffic pattern: leftleft
Obstructions: 45 ft. trees, 500 ft. from runway30 ft. pole, 10 ft. from runway

Airport Ownership and Management from official FAA records

Ownership: Privately-owned
Owner: JOHN L. BOHANNON
9015 FM 775
SEGUIN, TX 78155
Phone 830-914-3288
Manager: LEONARD BOHANNON
334 CHURCH RD
SEGUIN, TX 78155
Phone (830) 556-6362

Additional Remarks

FOR CD CTC SAN ANTONIO APCH AT 210-805-5516.

Instrument Procedures

There are no published instrument procedures at TE67.

Some nearby airports with instrument procedures:

KRND - Randolph Air Force Base (10 nm NW)
KBAZ - New Braunfels National Airport (17 nm N)
KSSF - Stinson Municipal Airport (19 nm W)
KSAT - San Antonio International Airport (19 nm W)
KSKF - Kelly Field Airport (24 nm W)
 
Loc | Ops | Rwys | IFR | FBO | Links
Com | Nav | Svcs | Stats | Notes
Area around TE67 (Cibolo Sea-Willo Airpark)
 
Road maps at: MapQuest Bing Google
 
Aerial photo
WARNING: Photo may not be current or correct
Aerial photo of TE67 (Cibolo Sea-Willo Airpark)
Do you have a better or more recent aerial photo of Cibolo Sea-Willo Airpark that you would like to share? If so, please send us your photo.

 
Sectional chart

 
Airport distance calculator
Flying to Cibolo Sea-Willo Airpark? Find the distance to fly.

From to TE67

Sunrise and sunset
Times for 17-Aug-2022
 Local
(UTC-5)
 Zulu
(UTC)
Morning civil twilight06:3811:38
Sunrise07:0312:03
Sunset20:1001:10
Evening civil twilight20:3501:35

Current date and time
Zulu (UTC)  17-Aug-2022 21:02:29
Local (UTC-5)  17-Aug-2022 16:02:29
 
METAR
KRND 
9nm NW 
172055Z AUTO 16004KT 10SM FEW060 36/18 A2993 RMK AO2 SLP125 T03590180 57018
KSEQ 
14nm NE 
172055Z AUTO 18009KT 10SM FEW065 36/19 A2992 RMK AO2 SLP126 T03620187 $
KBAZ 
18nm N 
172051Z 14008KT 10SM FEW070 37/19 A2993 RMK AO2 SLP124 T03670194 56019
KSSF 
18nm W 
172053Z VRB05KT 10SM SCT065 36/07 A2992 RMK AO2 SLP117 T03560067 58020
KSAT 
19nm W 
172051Z VRB05KT 10SM SCT065 BKN250 36/19 A2996 RMK AO2 SLP125 T03560189 58017
TAF
KRND 
9nm NW 
171600Z 1716/1822 19009KT 9999 SCT050 QNH2989INS BECMG 1812/1813 22006KT 9000 BR BKN011 BKN018 QNH2992INS TEMPO 1813/1815 SCT011 BKN018 BECMG 1815/1816 22008KT 9999 NSW SCT035 SCT180 QNH2985INS TX37/1722Z TN24/1811Z LAST NO AMDS AFT 1800 NEXT 1810
KSSF 
18nm W 
171745Z 1718/1818 16006KT P6SM SCT050 SCT250 FM181000 VRB03KT P6SM SCT070 SCT250
KSAT 
19nm W 
171745Z 1718/1824 16008KT P6SM SCT050 SCT250 FM181000 19004KT P6SM SCT050 SCT250 PROB30 1821/1824 P6SM -TSRA BKN050CB
NOTAMs
Click for the latest NOTAMs
NOTAMs are issued by the DoD/FAA and will open in a separate window not controlled by AirNav.

 

 
 

Would you like to see your business listed on this page?

 If your business provides an interesting product or service to pilots, flight crews, aircraft, or users of the Cibolo Sea-Willo Airpark, you should consider listing it here.  To start the listing process, click on the button below
 
Add a business
 

Other Pages about Cibolo Sea-Willo Airpark

Update a link
 
Copyright © AirNav, LLC. All rights reserved. Privacy Policy  Contact